Date,TemperatureHighF,TemperatureAvgF,TemperatureLowF,DewpointHighF,DewpointAvgF,DewpointLowF,HumidityHigh,HumidityAvg,HumidityLow,PressureMaxIn,PressureMinIn,WindSpeedMaxMPH,WindSpeedAvgMPH,GustSpeedMaxMPH,PrecipitationSumIn
2013-1-1,26.0,18.3,10.0,18.0,10.0,6.0,83,71,47,30.27,30.13,4,2,10,0.00
2013-1-2,30.0,18.4,9.0,18.0,11.4,5.0,85,75,50,30.25,30.13,8,3,17,0.00
2013-1-3,33.0,26.6,18.0,27.0,20.5,14.0,90,78,58,30.32,30.14,9,4,17,0.00
2013-1-4,36.0,23.4,12.0,24.0,17.6,9.0,88,79,60,30.31,30.22,8,2,17,0.00
2013-1-5,35.0,29.3,21.0,33.0,26.0,17.0,95,88,72,30.27,29.97,8,4,16,0.01
2013-1-6,35.0,25.6,17.0,33.0,21.8,15.0,93,86,73,30.36,29.96,9,4,19,0.01
2013-1-7,40.0,27.5,16.0,29.0,22.3,14.0,92,82,63,30.36,30.12,9,4,19,0.00
2013-1-8,46.0,34.3,26.0,34.0,28.4,23.0,91,80,56,30.16,30.04,8,4,17,0.00
2013-1-9,50.0,37.9,28.0,35.0,29.3,23.0,92,73,43,30.49,30.03,12,3,21,0.00
2013-1-10,29.0,26.4,24.0,24.0,22.4,20.0,89,85,80,30.49,30.46,1,0,2,0.00
2013-1-14,26.0,20.3,14.0,18.0,15.1,10.0,88,80,66,30.48,30.44,3,1,8,0.00
2013-1-15,31.0,21.3,13.0,22.0,16.6,10.0,92,82,62,30.46,30.14,1,0,7,0.00
2013-1-16,36.0,26.9,16.0,30.0,22.0,13.0,91,82,68,30.14,29.88,7,2,18,0.01
2013-1-17,34.0,28.3,20.0,31.0,22.0,16.0,93,78,59,30.43,30.07,6,1,14,0.01
2013-1-18,42.0,31.7,20.0,33.0,25.6,16.0,89,79,67,30.45,29.96,11,5,23,0.00
2013-1-19,50.0,40.1,30.0,39.0,32.9,16.0,84,75,56,30.01,29.76,16,5,34,0.00
2013-1-20,29.0,18.4,14.0,18.0,9.3,6.0,77,67,58,30.33,29.99,14,6,28,0.00
2013-1-21,15.0,10.0,4.0,10.0,0.4,-6.0,82,65,46,30.35,30.20,12,7,21,0.00
2013-1-22,13.0,7.7,1.0,2.0,-1.5,-5.0,81,66,53,30.46,30.34,7,4,16,0.00
2013-1-23,25.0,17.1,12.0,13.0,7.3,2.0,85,65,57,30.40,30.14,8,2,19,0.00
2013-1-24,24.0,15.6,6.0,10.0,3.8,-2.0,73,60,42,30.65,30.36,5,2,12,0.00
2013-1-25,34.0,23.9,18.0,24.0,15.9,7.0,90,72,54,30.38,29.99,7,2,13,0.02
2013-1-26,31.0,20.8,10.0,18.0,12.5,6.0,84,71,49,30.42,30.21,3,0,8,0.01
2013-1-27,39.0,29.8,24.0,38.0,25.4,17.0,98,84,70,30.39,29.90,7,2,14,0.08
2013-1-28,53.0,45.4,39.0,53.0,44.4,38.0,99,98,96,29.93,29.76,9,2,17,0.11
2013-1-29,63.0,56.8,51.0,60.0,55.7,50.0,99,96,91,29.76,29.36,9,5,22,1.11
2013-1-30,51.0,35.3,21.0,50.0,34.0,17.0,99,95,85,29.68,29.23,12,5,22,0.95
2013-1-31,21.0,11.8,4.0,17.0,6.1,-2.0,85,77,72,30.26,29.68,11,8,23,0.00